createdAt,value
2023-04-09T00:02:27.792Z,7.54
2023-04-09T00:04:55.583Z,7.52
2023-04-09T00:07:23.285Z,7.50
2023-04-09T00:09:51.295Z,7.49
2023-04-09T00:12:18.977Z,7.48
2023-04-09T00:14:46.619Z,7.48
2023-04-09T00:17:14.273Z,7.48
2023-04-09T00:19:41.932Z,7.50
2023-04-09T00:22:09.591Z,7.49
2023-04-09T00:24:37.297Z,7.48
2023-04-09T00:27:04.980Z,7.48
2023-04-09T00:29:32.720Z,7.47
2023-04-09T00:32:00.463Z,7.46
2023-04-09T00:34:28.183Z,7.45
2023-04-09T00:36:55.862Z,7.44
2023-04-09T00:39:23.538Z,7.43
2023-04-09T00:41:59.058Z,7.42
2023-04-09T00:44:26.820Z,7.42
2023-04-09T00:46:55.562Z,7.42
2023-04-09T00:49:24.877Z,7.41
2023-04-09T00:51:53.112Z,7.40
2023-04-09T00:54:21.150Z,7.41
2023-04-09T00:56:49.171Z,7.42
2023-04-09T00:59:17.013Z,7.43
2023-04-09T01:01:44.809Z,7.42
2023-04-09T01:04:12.749Z,7.42
2023-04-09T01:06:55.972Z,7.40
2023-04-09T01:09:42.448Z,7.40
2023-04-09T01:12:25.742Z,7.37
2023-04-09T01:15:03.480Z,7.34
2023-04-09T01:17:46.772Z,7.32
2023-04-09T01:20:18.445Z,7.29
2023-04-09T01:22:52.832Z,7.29
2023-04-09T01:25:46.353Z,7.29
2023-04-09T01:28:19.080Z,7.27
2023-04-09T01:30:56.424Z,7.24
2023-04-09T01:33:25.623Z,7.22
2023-04-09T01:35:55.063Z,7.23
2023-04-09T01:38:23.914Z,7.23
2023-04-09T01:40:52.207Z,7.23
2023-04-09T01:43:20.647Z,7.23
2023-04-09T01:45:48.900Z,7.22
2023-04-09T01:48:17.457Z,7.20
2023-04-09T01:50:45.655Z,7.20
2023-04-09T01:53:14.021Z,7.20
2023-04-09T01:55:41.865Z,7.20
2023-04-09T01:58:09.645Z,7.20
2023-04-09T02:00:46.931Z,7.22
2023-04-09T02:03:17.648Z,7.23
2023-04-09T02:05:55.872Z,7.25
2023-04-09T02:08:25.564Z,7.26
2023-04-09T02:10:56.842Z,7.27
2023-04-09T02:13:27.326Z,7.28
2023-04-09T02:15:56.717Z,7.28
2023-04-09T02:18:27.469Z,7.29
2023-04-09T02:20:57.289Z,7.29
2023-04-09T02:23:25.763Z,7.30
2023-04-09T02:25:54.207Z,7.30
2023-04-09T02:28:21.950Z,7.30
2023-04-09T02:30:49.867Z,7.31
2023-04-09T02:33:17.668Z,7.31
2023-04-09T02:35:45.617Z,7.30
2023-04-09T02:38:16.368Z,7.28
2023-04-09T02:40:44.094Z,7.27
2023-04-09T02:43:11.930Z,7.26
2023-04-09T02:45:39.718Z,7.26
2023-04-09T02:48:07.572Z,7.26
2023-04-09T02:50:35.424Z,7.27
2023-04-09T02:53:03.535Z,7.28
2023-04-09T02:55:31.468Z,7.26
2023-04-09T02:57:59.217Z,7.24
2023-04-09T03:00:27.001Z,7.23
2023-04-09T03:02:54.938Z,7.22
2023-04-09T03:05:22.972Z,7.22
2023-04-09T03:07:51.180Z,7.22
2023-04-09T03:10:18.977Z,7.21
2023-04-09T03:12:48.058Z,7.20
2023-04-09T03:15:15.830Z,7.19
2023-04-09T03:17:43.625Z,7.16
2023-04-09T03:20:11.431Z,7.15
2023-04-09T03:22:39.933Z,7.13
2023-04-09T03:25:08.209Z,7.13
2023-04-09T03:27:35.963Z,7.13
2023-04-09T03:30:04.140Z,7.12
2023-04-09T03:32:31.921Z,7.12
2023-04-09T03:34:59.643Z,7.10
2023-04-09T03:37:27.350Z,7.08
2023-04-09T03:39:55.068Z,7.08
2023-04-09T03:42:22.834Z,7.06
2023-04-09T03:44:53.761Z,7.06
2023-04-09T03:47:21.540Z,7.05
2023-04-09T03:49:49.335Z,7.04
2023-04-09T03:52:17.134Z,7.02
2023-04-09T03:54:45.053Z,7.00
2023-04-09T03:57:12.881Z,6.98
2023-04-09T03:59:40.611Z,6.96
2023-04-09T04:02:08.441Z,6.95
2023-04-09T04:04:36.361Z,6.93
2023-04-09T04:07:04.330Z,6.90
2023-04-09T04:09:32.111Z,6.89
2023-04-09T04:12:02.310Z,6.90
2023-04-09T04:14:30.277Z,6.89
2023-04-09T04:16:58.076Z,6.89
2023-04-09T04:19:25.898Z,6.88
2023-04-09T04:21:53.633Z,6.88
2023-04-09T04:24:21.376Z,6.90
2023-04-09T04:26:49.167Z,6.92
2023-04-09T04:29:17.070Z,6.94
2023-04-09T04:31:44.934Z,6.95
2023-04-09T04:34:12.736Z,6.94
2023-04-09T04:36:40.508Z,6.93
2023-04-09T04:39:08.300Z,6.93
2023-04-09T04:41:36.118Z,6.91
2023-04-09T04:44:03.858Z,6.87
2023-04-09T04:46:31.719Z,6.83
2023-04-09T04:48:59.484Z,6.81
2023-04-09T04:51:27.935Z,6.80
2023-04-09T04:53:55.683Z,6.80
2023-04-09T04:56:23.407Z,6.79
2023-04-09T04:58:51.438Z,6.80
2023-04-09T05:01:19.518Z,6.83
2023-04-09T05:03:47.413Z,6.85
2023-04-09T05:06:15.275Z,6.88
2023-04-09T05:08:43.098Z,6.91
2023-04-09T05:11:15.327Z,6.95
2023-04-09T05:13:43.059Z,6.99
2023-04-09T05:16:18.532Z,7.04
2023-04-09T05:18:47.271Z,7.09
2023-04-09T05:21:15.065Z,7.14
2023-04-09T05:23:42.930Z,7.20
2023-04-09T05:26:10.894Z,7.26
2023-04-09T05:28:38.788Z,7.33
2023-04-09T05:31:13.055Z,7.40
2023-04-09T05:33:44.796Z,7.45
2023-04-09T05:36:19.339Z,7.51
2023-04-09T05:38:47.646Z,7.52
2023-04-09T05:41:15.853Z,7.59
2023-04-09T05:43:43.681Z,7.66
2023-04-09T05:46:11.766Z,7.71
2023-04-09T05:48:39.825Z,7.76
2023-04-09T05:51:07.691Z,7.83
2023-04-09T05:53:35.654Z,7.90
2023-04-09T05:56:03.521Z,7.96
2023-04-09T05:58:31.488Z,7.99
2023-04-09T06:00:59.354Z,8.05
2023-04-09T06:03:27.465Z,8.11
2023-04-09T06:05:55.391Z,8.15
2023-04-09T06:08:23.260Z,8.20
2023-04-09T06:10:51.123Z,8.28
2023-04-09T06:13:19.090Z,8.35
2023-04-09T06:15:46.984Z,8.40
2023-04-09T06:18:14.943Z,8.45
2023-04-09T06:20:42.720Z,8.48
2023-04-09T06:23:11.695Z,8.55
2023-04-09T06:25:39.549Z,8.60
2023-04-09T06:28:07.828Z,8.66
2023-04-09T06:30:37.208Z,8.73
2023-04-09T06:33:05.253Z,8.81
2023-04-09T06:35:33.184Z,8.92
2023-04-09T06:38:01.226Z,9.00
2023-04-09T06:40:28.989Z,9.08
2023-04-09T06:42:56.753Z,9.17
2023-04-09T06:45:24.663Z,9.20
2023-04-09T06:47:52.749Z,9.25
2023-04-09T06:50:21.066Z,9.34
2023-04-09T06:52:48.841Z,9.39
2023-04-09T06:55:16.906Z,9.45
2023-04-09T06:57:44.865Z,9.52
2023-04-09T07:00:13.384Z,9.61
2023-04-09T07:02:41.596Z,9.71
2023-04-09T07:05:10.020Z,9.80
2023-04-09T07:07:37.869Z,9.85
2023-04-09T07:10:06.737Z,9.89
2023-04-09T07:12:35.757Z,9.98
2023-04-09T07:15:06.353Z,10.06
2023-04-09T07:17:35.025Z,10.12
2023-04-09T07:20:02.937Z,10.23
2023-04-09T07:22:31.252Z,10.37
2023-04-09T07:24:59.169Z,10.52
2023-04-09T07:27:28.651Z,10.66
2023-04-09T07:30:00.131Z,10.76
2023-04-09T07:32:28.623Z,10.83
2023-04-09T07:34:57.500Z,10.86
2023-04-09T07:37:26.266Z,10.89
2023-04-09T07:39:54.198Z,10.88
2023-04-09T07:42:22.014Z,10.93
2023-04-09T07:44:49.855Z,11.03
2023-04-09T07:47:17.604Z,11.16
2023-04-09T07:49:45.419Z,11.28
2023-04-09T07:52:13.281Z,11.27
2023-04-09T07:54:41.039Z,11.32
2023-04-09T07:57:08.853Z,11.38
2023-04-09T07:59:36.891Z,11.42
2023-04-09T08:02:05.024Z,11.50
2023-04-09T08:04:32.975Z,11.60
2023-04-09T08:07:00.846Z,11.65
2023-04-09T08:09:28.636Z,11.66
2023-04-09T08:11:57.423Z,11.64
2023-04-09T08:14:25.601Z,11.71
2023-04-09T08:16:53.763Z,11.77
2023-04-09T08:19:21.743Z,11.85
2023-04-09T08:21:49.851Z,11.87
2023-04-09T08:24:18.544Z,11.94
2023-04-09T08:26:46.775Z,12.03
2023-04-09T08:29:15.026Z,12.06
2023-04-09T08:31:43.274Z,12.04
2023-04-09T08:34:11.388Z,12.03
2023-04-09T08:36:39.728Z,12.05
2023-04-09T08:39:07.631Z,12.06
2023-04-09T08:41:39.898Z,12.04
2023-04-09T08:44:07.970Z,12.06
2023-04-09T08:46:36.971Z,12.14
2023-04-09T08:49:04.928Z,12.22
2023-04-09T08:51:32.798Z,12.31
2023-04-09T08:54:04.394Z,12.38
2023-04-09T08:56:32.870Z,12.41
2023-04-09T08:59:00.902Z,12.42
2023-04-09T09:01:30.767Z,12.41
2023-04-09T09:04:04.592Z,12.44
2023-04-09T09:06:35.969Z,12.54
2023-04-09T09:09:15.025Z,12.64
2023-04-09T09:11:46.986Z,12.76
2023-04-09T09:14:18.547Z,12.92
2023-04-09T09:16:58.481Z,13.12
2023-04-09T09:19:26.513Z,13.23
2023-04-09T09:22:07.807Z,13.29
2023-04-09T09:24:49.680Z,13.35
2023-04-09T09:27:39.783Z,13.42
2023-04-09T09:30:10.571Z,13.43
2023-04-09T09:32:39.323Z,13.45
2023-04-09T09:35:08.086Z,13.47
2023-04-09T09:37:38.625Z,13.47
2023-04-09T09:40:07.863Z,13.41
2023-04-09T09:42:36.263Z,13.34
2023-04-09T09:45:18.513Z,13.26
2023-04-09T09:47:47.516Z,13.19
2023-04-09T09:50:15.975Z,13.12
2023-04-09T09:52:46.772Z,13.11
2023-04-09T09:55:16.257Z,13.13
2023-04-09T09:57:48.140Z,13.09
2023-04-09T10:00:19.209Z,13.07
2023-04-09T10:03:02.670Z,13.05
2023-04-09T10:05:31.752Z,13.00
2023-04-09T10:08:00.457Z,12.91
2023-04-09T10:10:29.105Z,12.88
2023-04-09T10:12:58.149Z,12.88
2023-04-09T10:15:28.623Z,12.86
2023-04-09T10:17:58.670Z,12.80
2023-04-09T10:20:32.738Z,12.72
2023-04-09T10:23:07.362Z,12.69
2023-04-09T10:25:38.520Z,12.72
2023-04-09T10:28:17.444Z,12.74
2023-04-09T10:30:46.554Z,12.69
2023-04-09T10:33:16.963Z,12.76
2023-04-09T10:35:48.017Z,12.83
2023-04-09T10:38:15.768Z,12.97
2023-04-09T10:40:51.610Z,13.03
2023-04-09T10:43:23.706Z,13.11
2023-04-09T10:45:54.584Z,13.22
2023-04-09T10:48:26.242Z,13.31
2023-04-09T10:50:55.456Z,13.45
2023-04-09T10:53:25.420Z,13.54
2023-04-09T10:55:54.346Z,13.61
2023-04-09T10:58:22.349Z,13.62
2023-04-09T11:00:51.614Z,13.54
2023-04-09T11:03:29.146Z,13.52
2023-04-09T11:06:11.257Z,13.63
2023-04-09T11:08:39.275Z,13.68
2023-04-09T11:11:10.365Z,13.76
2023-04-09T11:13:38.002Z,13.83
2023-04-09T11:16:07.321Z,13.80
2023-04-09T11:18:37.526Z,13.82
2023-04-09T11:21:06.109Z,13.92
2023-04-09T11:23:34.513Z,14.09
2023-04-09T11:26:03.014Z,14.29
2023-04-09T11:28:31.242Z,14.36
2023-04-09T11:30:59.129Z,14.40
2023-04-09T11:33:34.542Z,14.49
2023-04-09T11:36:06.607Z,14.67
2023-04-09T11:38:37.196Z,14.60
2023-04-09T11:41:05.217Z,14.49
2023-04-09T11:43:32.974Z,14.40
2023-04-09T11:46:01.050Z,14.35
2023-04-09T11:48:29.017Z,14.31
2023-04-09T11:50:57.525Z,14.32
2023-04-09T11:53:31.329Z,14.25
2023-04-09T11:55:59.367Z,14.23
2023-04-09T11:58:28.156Z,14.36
2023-04-09T12:00:58.741Z,14.39
2023-04-09T12:03:33.235Z,14.41
2023-04-09T12:06:03.830Z,14.48
2023-04-09T12:08:35.189Z,14.56
2023-04-09T12:11:16.700Z,14.70
2023-04-09T12:13:46.507Z,14.77
2023-04-09T12:16:15.133Z,14.83
2023-04-09T12:18:43.250Z,14.84
2023-04-09T12:21:11.437Z,14.81
2023-04-09T12:23:39.286Z,14.75
2023-04-09T12:26:07.050Z,14.60
2023-04-09T12:28:34.922Z,14.52
2023-04-09T12:31:03.753Z,14.48
2023-04-09T12:33:32.593Z,14.47
2023-04-09T12:36:00.786Z,14.53
2023-04-09T12:38:28.647Z,14.63
2023-04-09T12:40:56.423Z,14.65
2023-04-09T12:43:24.220Z,14.67
2023-04-09T12:45:53.272Z,14.74
2023-04-09T12:48:21.406Z,14.84
2023-04-09T12:50:49.179Z,14.92
2023-04-09T12:53:17.140Z,14.97
2023-04-09T12:55:45.006Z,15.03
2023-04-09T12:58:12.987Z,15.09
2023-04-09T13:00:41.259Z,15.11
2023-04-09T13:03:09.479Z,15.18
2023-04-09T13:05:37.571Z,15.24
2023-04-09T13:08:05.665Z,15.32
2023-04-09T13:10:33.739Z,15.41
2023-04-09T13:13:01.633Z,15.39
2023-04-09T13:15:29.574Z,15.36
2023-04-09T13:17:57.644Z,15.33
2023-04-09T13:20:25.712Z,15.30
2023-04-09T13:22:53.481Z,15.28
2023-04-09T13:25:21.374Z,15.25
2023-04-09T13:27:49.201Z,15.20
2023-04-09T13:30:17.082Z,15.15
2023-04-09T13:32:44.988Z,15.09
2023-04-09T13:35:12.911Z,15.07
2023-04-09T13:37:41.086Z,15.07
2023-04-09T13:40:09.459Z,15.10
2023-04-09T13:42:40.500Z,15.20
2023-04-09T13:45:08.368Z,15.30
2023-04-09T13:47:36.889Z,15.41
2023-04-09T13:50:05.459Z,15.41
2023-04-09T13:52:33.392Z,15.36
2023-04-09T13:55:02.228Z,15.38
2023-04-09T13:57:30.050Z,15.51
2023-04-09T13:59:58.120Z,15.61
2023-04-09T14:02:26.135Z,15.68
2023-04-09T14:04:54.162Z,15.65
2023-04-09T14:07:21.933Z,15.62
2023-04-09T14:09:51.289Z,15.61
2023-04-09T14:12:19.189Z,15.63
2023-04-09T14:14:47.173Z,15.65
2023-04-09T14:17:15.023Z,15.66
2023-04-09T14:19:42.889Z,15.57
2023-04-09T14:22:11.624Z,15.46
2023-04-09T14:24:40.283Z,15.37
2023-04-09T14:27:09.164Z,15.32
2023-04-09T14:29:37.036Z,15.23
2023-04-09T14:32:04.876Z,15.18
2023-04-09T14:34:32.740Z,15.06
2023-04-09T14:37:00.868Z,14.93
2023-04-09T14:39:28.885Z,14.86
2023-04-09T14:41:57.463Z,14.78
2023-04-09T14:44:26.082Z,14.75
2023-04-09T14:46:57.965Z,14.74
2023-04-09T14:49:26.184Z,14.74
2023-04-09T14:51:54.774Z,14.77
2023-04-09T14:54:22.740Z,14.79
2023-04-09T14:56:50.701Z,14.83
2023-04-09T14:59:19.186Z,14.88
2023-04-09T15:01:47.634Z,14.87
2023-04-09T15:04:15.786Z,14.87
2023-04-09T15:06:45.832Z,14.85
2023-04-09T15:09:14.496Z,14.80
2023-04-09T15:11:42.405Z,14.74
2023-04-09T15:14:10.408Z,14.67
2023-04-09T15:16:38.599Z,14.57
2023-04-09T15:19:06.533Z,14.52
2023-04-09T15:21:34.361Z,14.55
2023-04-09T15:24:04.037Z,14.54
2023-04-09T15:26:34.344Z,14.47
2023-04-09T15:29:06.878Z,14.41
2023-04-09T15:31:35.429Z,14.32
2023-04-09T15:34:03.822Z,14.27
2023-04-09T15:36:32.628Z,14.29
2023-04-09T15:39:06.704Z,14.33
2023-04-09T15:41:36.480Z,14.22
2023-04-09T15:44:08.554Z,14.18
2023-04-09T15:46:39.758Z,14.19
2023-04-09T15:49:08.442Z,14.20
2023-04-09T15:51:36.237Z,14.19
2023-04-09T15:54:04.583Z,14.16
2023-04-09T15:56:32.639Z,14.15
2023-04-09T15:59:02.771Z,14.15
2023-04-09T16:01:31.954Z,14.17
2023-04-09T16:03:59.992Z,14.17
2023-04-09T16:06:28.119Z,14.15
2023-04-09T16:08:57.316Z,14.08
2023-04-09T16:11:26.201Z,13.99
2023-04-09T16:13:54.168Z,13.91
2023-04-09T16:16:22.187Z,13.84
2023-04-09T16:18:50.385Z,13.78
2023-04-09T16:21:18.691Z,13.74
2023-04-09T16:23:46.761Z,13.69
2023-04-09T16:26:14.897Z,13.64
2023-04-09T16:28:42.946Z,13.58
2023-04-09T16:31:11.294Z,13.52
2023-04-09T16:33:39.647Z,13.46
2023-04-09T16:36:08.333Z,13.42
2023-04-09T16:38:36.694Z,13.36
2023-04-09T16:41:04.983Z,13.32
2023-04-09T16:43:33.676Z,13.28
2023-04-09T16:46:06.975Z,13.24
2023-04-09T16:48:36.385Z,13.22
2023-04-09T16:51:04.844Z,13.18
2023-04-09T16:53:33.388Z,13.17
2023-04-09T16:56:01.887Z,13.09
2023-04-09T16:58:30.586Z,13.02
2023-04-09T17:00:59.705Z,12.96
2023-04-09T17:03:28.485Z,12.89
2023-04-09T17:05:57.464Z,12.83
2023-04-09T17:08:25.845Z,12.79
2023-04-09T17:11:02.551Z,12.74
2023-04-09T17:13:34.334Z,12.65
2023-04-09T17:16:03.567Z,12.57
2023-04-09T17:18:34.837Z,12.51
2023-04-09T17:21:03.005Z,12.47
2023-04-09T17:23:31.261Z,12.39
2023-04-09T17:26:00.578Z,12.36
2023-04-09T17:28:29.875Z,12.30
2023-04-09T17:30:57.776Z,12.22
2023-04-09T17:33:32.035Z,12.12
2023-04-09T17:36:03.210Z,12.02
2023-04-09T17:38:31.979Z,11.89
2023-04-09T17:41:00.189Z,11.77
2023-04-09T17:43:28.322Z,11.64
2023-04-09T17:45:56.819Z,11.50
2023-04-09T17:48:24.782Z,11.39
2023-04-09T17:50:52.634Z,11.30
2023-04-09T17:53:21.412Z,11.25
2023-04-09T17:55:50.953Z,11.24
2023-04-09T17:58:19.406Z,11.26
2023-04-09T18:00:47.615Z,11.27
2023-04-09T18:03:16.062Z,11.25
2023-04-09T18:05:44.532Z,11.23
2023-04-09T18:08:12.605Z,11.22
2023-04-09T18:10:40.418Z,11.22
2023-04-09T18:13:08.195Z,11.20
2023-04-09T18:15:37.492Z,11.17
2023-04-09T18:18:05.844Z,11.15
2023-04-09T18:20:33.779Z,11.12
2023-04-09T18:23:01.568Z,11.10
2023-04-09T18:25:29.409Z,11.07
2023-04-09T18:27:57.205Z,11.07
2023-04-09T18:30:26.467Z,11.05
2023-04-09T18:32:54.386Z,11.03
2023-04-09T18:35:22.304Z,11.00
2023-04-09T18:37:50.169Z,10.96
2023-04-09T18:40:20.284Z,10.94
2023-04-09T18:42:54.720Z,10.93
2023-04-09T18:45:22.777Z,10.90
2023-04-09T18:47:50.675Z,10.87
2023-04-09T18:50:18.942Z,10.84
2023-04-09T18:52:47.001Z,10.78
2023-04-09T18:55:15.778Z,10.75
2023-04-09T18:57:44.560Z,10.71
2023-04-09T19:00:12.891Z,10.66
2023-04-09T19:02:40.828Z,10.64
2023-04-09T19:05:09.552Z,10.61
2023-04-09T19:07:38.175Z,10.57
2023-04-09T19:10:06.784Z,10.52
2023-04-09T19:12:34.733Z,10.47
2023-04-09T19:15:04.684Z,10.43
2023-04-09T19:17:34.261Z,10.37
2023-04-09T19:20:03.150Z,10.31
2023-04-09T19:22:31.323Z,10.25
2023-04-09T19:24:59.290Z,10.20
2023-04-09T19:27:27.490Z,10.13
2023-04-09T19:29:58.973Z,10.07
2023-04-09T19:32:27.240Z,10.01
2023-04-09T19:34:55.167Z,9.97
2023-04-09T19:37:27.526Z,9.92
2023-04-09T19:39:56.815Z,9.88
2023-04-09T19:42:25.296Z,9.83
2023-04-09T19:44:53.056Z,9.79
2023-04-09T19:47:21.310Z,9.78
2023-04-09T19:49:49.218Z,9.76
2023-04-09T19:52:17.061Z,9.71
2023-04-09T19:54:44.930Z,9.70
2023-04-09T19:57:12.977Z,9.70
2023-04-09T19:59:41.200Z,9.72
2023-04-09T20:02:09.299Z,9.73
2023-04-09T20:04:37.321Z,9.72
2023-04-09T20:07:05.180Z,9.73
2023-04-09T20:09:33.150Z,9.74
2023-04-09T20:12:04.490Z,9.76
2023-04-09T20:14:32.207Z,9.78
2023-04-09T20:17:00.309Z,9.79
2023-04-09T20:19:28.304Z,9.76
2023-04-09T20:21:56.303Z,9.75
2023-04-09T20:24:26.485Z,9.75
2023-04-09T20:26:55.280Z,9.75
2023-04-09T20:29:23.082Z,9.74
2023-04-09T20:31:50.970Z,9.73
2023-04-09T20:34:18.872Z,9.74
2023-04-09T20:36:48.177Z,9.73
2023-04-09T20:39:16.442Z,9.72
2023-04-09T20:41:44.410Z,9.70
2023-04-09T20:44:12.446Z,9.68
2023-04-09T20:46:40.758Z,9.64
2023-04-09T20:49:08.616Z,9.61
2023-04-09T20:51:37.096Z,9.59
2023-04-09T20:54:04.969Z,9.55
2023-04-09T20:56:32.739Z,9.54
2023-04-09T20:59:01.618Z,9.52
2023-04-09T21:01:29.642Z,9.50
2023-04-09T21:03:57.983Z,9.49
2023-04-09T21:06:26.746Z,9.46
2023-04-09T21:08:56.419Z,9.44
2023-04-09T21:11:25.351Z,9.44
2023-04-09T21:13:55.351Z,9.42
2023-04-09T21:16:24.020Z,9.41
2023-04-09T21:18:52.472Z,9.39
2023-04-09T21:21:20.701Z,9.38
2023-04-09T21:23:48.582Z,9.33
2023-04-09T21:26:16.578Z,9.27
2023-04-09T21:28:45.975Z,9.21
2023-04-09T21:31:15.961Z,9.16
2023-04-09T21:33:43.944Z,9.09
2023-04-09T21:36:11.724Z,9.02
2023-04-09T21:38:39.782Z,8.96
2023-04-09T21:41:08.561Z,8.92
2023-04-09T21:43:38.568Z,8.86
2023-04-09T21:46:06.789Z,8.82
2023-04-09T21:48:34.557Z,8.79
2023-04-09T21:51:02.576Z,8.74
2023-04-09T21:53:31.477Z,8.67
2023-04-09T21:55:59.242Z,8.66
2023-04-09T21:58:27.104Z,8.62
2023-04-09T22:00:54.966Z,8.56
2023-04-09T22:03:23.788Z,8.52
2023-04-09T22:05:51.823Z,8.49
2023-04-09T22:08:19.687Z,8.47
2023-04-09T22:10:47.660Z,8.41
2023-04-09T22:13:15.678Z,8.35
2023-04-09T22:15:43.873Z,8.30
2023-04-09T22:18:12.000Z,8.28
2023-04-09T22:20:39.860Z,8.22
2023-04-09T22:23:08.717Z,8.16
2023-04-09T22:25:36.689Z,8.12
2023-04-09T22:28:06.009Z,8.05
2023-04-09T22:30:33.933Z,8.00
2023-04-09T22:33:02.331Z,7.93
2023-04-09T22:35:30.743Z,7.86
2023-04-09T22:37:59.606Z,7.78
2023-04-09T22:40:27.410Z,7.71
2023-04-09T22:42:55.354Z,7.62
2023-04-09T22:45:23.125Z,7.55
2023-04-09T22:47:51.018Z,7.49
2023-04-09T22:50:19.177Z,7.44
2023-04-09T22:52:47.433Z,7.36
2023-04-09T22:55:16.735Z,7.29
2023-04-09T22:57:44.500Z,7.20
2023-04-09T23:00:14.484Z,7.13
2023-04-09T23:02:42.511Z,7.08
2023-04-09T23:05:10.814Z,7.06
2023-04-09T23:07:39.432Z,7.03
2023-04-09T23:10:08.160Z,6.97
2023-04-09T23:12:35.932Z,6.93
2023-04-09T23:15:04.328Z,6.87
2023-04-09T23:17:32.151Z,6.79
2023-04-09T23:20:00.808Z,6.71
2023-04-09T23:22:28.782Z,6.64
2023-04-09T23:24:56.852Z,6.57
2023-04-09T23:27:29.014Z,6.50
2023-04-09T23:29:57.880Z,6.45
2023-04-09T23:32:25.999Z,6.40
2023-04-09T23:34:53.839Z,6.31
2023-04-09T23:37:21.690Z,6.25
2023-04-09T23:39:49.499Z,6.19
2023-04-09T23:42:17.335Z,6.12
2023-04-09T23:44:45.202Z,6.04
2023-04-09T23:47:13.975Z,6.00
2023-04-09T23:49:43.605Z,5.97
2023-04-09T23:52:11.436Z,5.91
2023-04-09T23:54:39.201Z,5.87
2023-04-09T23:57:07.342Z,5.82
2023-04-09T23:59:36.181Z,5.81
